Flugplatz Sömmerda-Dermsdorf

Für EDBS sind keine METAR/TAF Berichte vorhanden.
Es werden die Flugwettermeldungen vom Flugplatz Erfurt in 29 km Entfernung angezeigt.

Bericht für EDDE

vom 10.04. um 10:50 UTC

Wind 4 kt aus 20°

Sichtweite 10 km oder mehr

aufgelockert bewölkt in 800 ft

aufgebrochene Bewölkung in 1200 ft

Temperatur 6.0°C

Taupunkt 5.0°C

Luftfeuchtigkeit 93%

Luftdruck 1015 hPa

EDDE 101050Z 02004KT 9999 SCT008 BKN012 06/05 Q1015 TEMPO SCT012

Prognose für EDDE

vom 10.04. um 05:00 UTC

Zwischen 06:00 UTC und 13:00 UTC

Wind 4 kt aus 60°

Sichtweite 10 km oder mehr

aufgebrochene Bewölkung in 3000 ft


Zwischen 06:00 UTC und 12:00 UTC zeitweise

Wind 8 kt aus 130°

Sichtweite 1100 m

Regen

aufgebrochene Bewölkung in 400 ft


Zwischen 12:00 UTC und 23:00 UTC zeitweise

Sichtweite 3500 m

Sprühregen

Regen

aufgebrochene Bewölkung in 400 ft


Zwischen 13:00 und 15:00 UTC übergehend zu

Wind 6 kt aus 130°

Sichtweite 10 km oder mehr

aufgebrochene Bewölkung in 3000 ft


Zwischen 20:00 und 22:00 UTC übergehend zu

Wind 8 kt aus 190°

Sichtweite 10 km oder mehr

aufgebrochene Bewölkung in 3000 ft

TAF EDDE 100500Z 1006/1106 06004KT 9999 BKN030 TEMPO 1006/1012 13008KT 1100 RA BKN004 TEMPO 1012/1023 3500 DZRA BKN004 BECMG 1013/1015 13006KT BECMG 1020/1022 19008KT
Impressum